sensor_id;sensor_type;location;lat;lon;timestamp;pressure;altitude;pressure_sealevel;temperature;humidity
63819;BME280;49970;54.976;73.248;2022-11-14T00:02:37;98320.78;;;-1.15;100.00
63819;BME280;49970;54.976;73.248;2022-11-14T00:05:27;98324.31;;;-1.16;100.00
63819;BME280;49970;54.976;73.248;2022-11-14T00:08:20;98316.38;;;-1.13;100.00
63819;BME280;49970;54.976;73.248;2022-11-14T00:11:08;98306.88;;;-1.14;100.00
63819;BME280;49970;54.976;73.248;2022-11-14T00:13:53;98309.31;;;-1.11;100.00
63819;BME280;49970;54.976;73.248;2022-11-14T00:16:38;98298.19;;;-1.13;100.00
63819;BME280;49970;54.976;73.248;2022-11-14T00:19:22;98273.88;;;-1.28;100.00
63819;BME280;49970;54.976;73.248;2022-11-14T00:22:17;98286.84;;;-1.12;100.00
63819;BME280;49970;54.976;73.248;2022-11-14T00:25:01;98281.16;;;-1.18;100.00
63819;BME280;49970;54.976;73.248;2022-11-14T00:27:50;98276.78;;;-1.18;100.00
63819;BME280;49970;54.976;73.248;2022-11-14T00:30:35;98275.13;;;-1.19;100.00
63819;BME280;49970;54.976;73.248;2022-11-14T00:33:25;98283.31;;;-1.11;100.00
63819;BME280;49970;54.976;73.248;2022-11-14T00:36:20;98281.00;;;-1.15;100.00
63819;BME280;49970;54.976;73.248;2022-11-14T00:39:04;98267.91;;;-1.14;100.00
63819;BME280;49970;54.976;73.248;2022-11-14T00:41:59;98266.41;;;-1.18;100.00
63819;BME280;49970;54.976;73.248;2022-11-14T00:44:43;98268.66;;;-1.12;100.00
63819;BME280;49970;54.976;73.248;2022-11-14T00:47:28;98272.25;;;-1.14;100.00
63819;BME280;49970;54.976;73.248;2022-11-14T00:50:13;98261.03;;;-1.15;100.00
63819;BME280;49970;54.976;73.248;2022-11-14T00:53:03;98250.81;;;-1.18;100.00
63819;BME280;49970;54.976;73.248;2022-11-14T00:55:47;98246.38;;;-1.16;100.00
63819;BME280;49970;54.976;73.248;2022-11-14T00:58:32;98250.06;;;-1.20;100.00
63819;BME280;49970;54.976;73.248;2022-11-14T01:01:16;98244.72;;;-1.17;100.00
63819;BME280;49970;54.976;73.248;2022-11-14T01:04:01;98242.97;;;-1.16;100.00
63819;BME280;49970;54.976;73.248;2022-11-14T01:06:46;98235.06;;;-1.15;100.00
63819;BME280;49970;54.976;73.248;2022-11-14T01:09:30;98234.91;;;-1.12;100.00
63819;BME280;49970;54.976;73.248;2022-11-14T01:12:14;98228.88;;;-1.12;100.00
63819;BME280;49970;54.976;73.248;2022-11-14T01:14:59;98224.66;;;-1.15;100.00
63819;BME280;49970;54.976;73.248;2022-11-14T01:17:43;98220.41;;;-1.16;100.00
63819;BME280;49970;54.976;73.248;2022-11-14T01:20:28;98210.75;;;-1.14;100.00
63819;BME280;49970;54.976;73.248;2022-11-14T01:23:15;98210.75;;;-1.14;100.00
63819;BME280;49970;54.976;73.248;2022-11-14T01:26:05;98208.09;;;-1.12;100.00
63819;BME280;49970;54.976;73.248;2022-11-14T01:28:54;98203.91;;;-1.15;100.00
63819;BME280;49970;54.976;73.248;2022-11-14T01:31:59;98195.25;;;-1.15;100.00
63819;BME280;49970;54.976;73.248;2022-11-14T01:36:09;98197.03;;;-1.16;100.00
63819;BME280;49970;54.976;73.248;2022-11-14T01:39:39;98186.72;;;-1.17;100.00
63819;BME280;49970;54.976;73.248;2022-11-14T01:42:23;98190.06;;;-1.15;100.00
63819;BME280;49970;54.976;73.248;2022-11-14T01:49:10;98190.06;;;-1.15;100.00
63819;BME280;49970;54.976;73.248;2022-11-14T01:52:10;98177.41;;;-1.21;100.00
63819;BME280;49970;54.976;73.248;2022-11-14T01:55:01;98171.22;;;-1.19;100.00
63819;BME280;49970;54.976;73.248;2022-11-14T01:57:47;98178.28;;;-1.21;100.00
63819;BME280;49970;54.976;73.248;2022-11-14T02:00:33;98170.38;;;-1.19;100.00
63819;BME280;49970;54.976;73.248;2022-11-14T02:03:27;98172.31;;;-1.23;100.00
63819;BME280;49970;54.976;73.248;2022-11-14T02:06:14;98168.78;;;-1.22;100.00
63819;BME280;49970;54.976;73.248;2022-11-14T02:09:02;98167.03;;;-1.21;100.00
63819;BME280;49970;54.976;73.248;2022-11-14T02:11:49;98173.00;;;-1.19;100.00
63819;BME280;49970;54.976;73.248;2022-11-14T02:14:36;98165.09;;;-1.18;100.00
63819;BME280;49970;54.976;73.248;2022-11-14T02:17:22;98162.69;;;-1.21;100.00
63819;BME280;49970;54.976;73.248;2022-11-14T02:20:23;98157.50;;;-1.21;100.00
63819;BME280;49970;54.976;73.248;2022-11-14T02:23:11;98155.91;;;-1.23;100.00
63819;BME280;49970;54.976;73.248;2022-11-14T02:26:01;98152.38;;;-1.22;100.00
63819;BME280;49970;54.976;73.248;2022-11-14T02:28:55;98156.00;;;-1.25;100.00
63819;BME280;49970;54.976;73.248;2022-11-14T02:31:40;98156.75;;;-1.23;100.00
63819;BME280;49970;54.976;73.248;2022-11-14T02:34:25;98144.03;;;-1.28;100.00
63819;BME280;49970;54.976;73.248;2022-11-14T02:37:09;98150.72;;;-1.23;100.00
63819;BME280;49970;54.976;73.248;2022-11-14T02:39:54;98152.22;;;-1.19;100.00
63819;BME280;49970;54.976;73.248;2022-11-14T02:42:39;98150.63;;;-1.22;100.00
63819;BME280;49970;54.976;73.248;2022-11-14T02:45:29;98142.09;;;-1.24;100.00
63819;BME280;49970;54.976;73.248;2022-11-14T02:48:13;98143.41;;;-1.17;100.00
63819;BME280;49970;54.976;73.248;2022-11-14T02:51:08;98146.00;;;-1.17;100.00
63819;BME280;49970;54.976;73.248;2022-11-14T02:53:53;98133.03;;;-1.17;100.00
63819;BME280;49970;54.976;73.248;2022-11-14T02:56:37;98129.50;;;-1.16;100.00
63819;BME280;49970;54.976;73.248;2022-11-14T02:59:28;98135.34;;;-1.12;100.00
63819;BME280;49970;54.976;73.248;2022-11-14T03:02:18;98118.34;;;-1.18;100.00
63819;BME280;49970;54.976;73.248;2022-11-14T03:05:02;98118.00;;;-1.12;100.00
63819;BME280;49970;54.976;73.248;2022-11-14T03:07:47;98121.53;;;-1.13;100.00
63819;BME280;49970;54.976;73.248;2022-11-14T03:10:45;98123.00;;;-1.09;100.00
63819;BME280;49970;54.976;73.248;2022-11-14T03:13:35;98117.78;;;-1.09;100.00
63819;BME280;49970;54.976;73.248;2022-11-14T03:16:20;98114.28;;;-1.08;100.00
63819;BME280;49970;54.976;73.248;2022-11-14T03:19:04;98116.97;;;-1.09;100.00
63819;BME280;49970;54.976;73.248;2022-11-14T03:21:54;98108.06;;;-1.05;100.00
63819;BME280;49970;54.976;73.248;2022-11-14T03:24:38;98101.19;;;-1.06;100.00
63819;BME280;49970;54.976;73.248;2022-11-14T03:27:23;98106.28;;;-1.05;100.00
63819;BME280;49970;54.976;73.248;2022-11-14T03:30:08;98097.50;;;-1.02;100.00
63819;BME280;49970;54.976;73.248;2022-11-14T03:33:03;98104.34;;;-1.01;100.00
63819;BME280;49970;54.976;73.248;2022-11-14T03:35:49;98106.06;;;-1.00;100.00
63819;BME280;49970;54.976;73.248;2022-11-14T03:38:44;98093.78;;;-0.98;100.00
63819;BME280;49970;54.976;73.248;2022-11-14T03:41:31;98100.56;;;-0.95;100.00
63819;BME280;49970;54.976;73.248;2022-11-14T03:44:21;98096.22;;;-0.95;100.00
63819;BME280;49970;54.976;73.248;2022-11-14T03:47:11;98089.97;;;-0.92;100.00
63819;BME280;49970;54.976;73.248;2022-11-14T03:49:55;98082.19;;;-0.92;100.00
63819;BME280;49970;54.976;73.248;2022-11-14T03:52:40;98072.66;;;-0.92;100.00
63819;BME280;49970;54.976;73.248;2022-11-14T03:55:30;98076.09;;;-0.91;100.00
63819;BME280;49970;54.976;73.248;2022-11-14T03:58:19;98072.56;;;-0.90;100.00
63819;BME280;49970;54.976;73.248;2022-11-14T04:01:04;98072.66;;;-0.92;100.00
63819;BME280;49970;54.976;73.248;2022-11-14T04:03:48;98069.00;;;-0.89;100.00
63819;BME280;49970;54.976;73.248;2022-11-14T04:06:33;98063.81;;;-0.89;100.00
63819;BME280;49970;54.976;73.248;2022-11-14T04:09:17;98058.91;;;-0.94;100.00
63819;BME280;49970;54.976;73.248;2022-11-14T04:12:12;98069.66;;;-0.86;100.00
63819;BME280;49970;54.976;73.248;2022-11-14T04:15:06;98054.19;;;-0.87;100.00
63819;BME280;49970;54.976;73.248;2022-11-14T04:17:51;98063.63;;;-0.86;100.00
63819;BME280;49970;54.976;73.248;2022-11-14T04:20:36;98060.00;;;-0.84;100.00
63819;BME280;49970;54.976;73.248;2022-11-14T04:23:26;98057.16;;;-0.79;100.00
63819;BME280;49970;54.976;73.248;2022-11-14T04:26:10;98051.84;;;-0.78;100.00
63819;BME280;49970;54.976;73.248;2022-11-14T04:28:55;98053.50;;;-0.77;100.00
63819;BME280;49970;54.976;73.248;2022-11-14T04:31:50;98045.81;;;-0.78;100.00
63819;BME280;49970;54.976;73.248;2022-11-14T04:34:35;98051.66;;;-0.74;100.00
63819;BME280;49970;54.976;73.248;2022-11-14T04:37:24;98047.38;;;-0.76;100.00
63819;BME280;49970;54.976;73.248;2022-11-14T04:40:19;98056.88;;;-0.74;100.00
63819;BME280;49970;54.976;73.248;2022-11-14T04:43:13;98048.13;;;-0.73;100.00
63819;BME280;49970;54.976;73.248;2022-11-14T04:45:59;98045.53;;;-0.73;100.00
63819;BME280;49970;54.976;73.248;2022-11-14T04:48:48;98043.66;;;-0.71;100.00
63819;BME280;49970;54.976;73.248;2022-11-14T04:51:38;98037.63;;;-0.72;100.00
63819;BME280;49970;54.976;73.248;2022-11-14T04:54:28;98036.63;;;-0.69;100.00
63819;BME280;49970;54.976;73.248;2022-11-14T04:57:23;98028.72;;;-0.68;100.00
63819;BME280;49970;54.976;73.248;2022-11-14T05:00:12;98028.63;;;-0.66;100.00
63819;BME280;49970;54.976;73.248;2022-11-14T05:02:58;98021.03;;;-0.69;100.00
63819;BME280;49970;54.976;73.248;2022-11-14T05:05:43;98020.72;;;-0.65;100.00
63819;BME280;49970;54.976;73.248;2022-11-14T05:08:28;98018.03;;;-0.63;100.00
63819;BME280;49970;54.976;73.248;2022-11-14T05:11:16;98018.78;;;-0.61;100.00
63819;BME280;49970;54.976;73.248;2022-11-14T05:14:01;98027.41;;;-0.61;100.00
63819;BME280;49970;54.976;73.248;2022-11-14T05:16:53;97997.44;;;-0.66;100.00
63819;BME280;49970;54.976;73.248;2022-11-14T05:19:38;97995.28;;;-0.60;100.00
63819;BME280;49970;54.976;73.248;2022-11-14T05:22:22;97988.59;;;-0.64;100.00
63819;BME280;49970;54.976;73.248;2022-11-14T05:25:12;98013.19;;;-0.55;100.00
63819;BME280;49970;54.976;73.248;2022-11-14T05:27:57;98000.28;;;-0.57;100.00
63819;BME280;49970;54.976;73.248;2022-11-14T05:30:41;98002.78;;;-0.55;100.00
63819;BME280;49970;54.976;73.248;2022-11-14T05:33:30;98000.09;;;-0.54;100.00
63819;BME280;49970;54.976;73.248;2022-11-14T05:36:15;98002.59;;;-0.52;100.00
63819;BME280;49970;54.976;73.248;2022-11-14T05:39:00;97993.13;;;-0.53;100.00
63819;BME280;49970;54.976;73.248;2022-11-14T05:41:55;97996.38;;;-0.49;100.00
63819;BME280;49970;54.976;73.248;2022-11-14T05:44:39;97993.03;;;-0.52;100.00
63819;BME280;49970;54.976;73.248;2022-11-14T05:47:24;97992.72;;;-0.47;100.00
63819;BME280;49970;54.976;73.248;2022-11-14T05:50:08;97991.06;;;-0.48;100.00
63819;BME280;49970;54.976;73.248;2022-11-14T05:52:53;97986.50;;;-0.44;100.00
63819;BME280;49970;54.976;73.248;2022-11-14T05:55:39;97986.41;;;-0.43;100.00
63819;BME280;49970;54.976;73.248;2022-11-14T05:58:34;97988.28;;;-0.45;100.00
63819;BME280;49970;54.976;73.248;2022-11-14T06:01:20;97989.75;;;-0.41;100.00
63819;BME280;49970;54.976;73.248;2022-11-14T06:04:05;97985.38;;;-0.40;100.00
63819;BME280;49970;54.976;73.248;2022-11-14T06:06:50;97986.41;;;-0.43;100.00
63819;BME280;49970;54.976;73.248;2022-11-14T06:09:34;97984.25;;;-0.36;100.00
63819;BME280;49970;54.976;73.248;2022-11-14T06:12:23;97975.63;;;-0.37;100.00
63819;BME280;49970;54.976;73.248;2022-11-14T06:15:08;97971.25;;;-0.36;100.00
63819;BME280;49970;54.976;73.248;2022-11-14T06:17:53;97973.38;;;-0.29;100.00
63819;BME280;49970;54.976;73.248;2022-11-14T06:20:37;97961.28;;;-0.30;100.00
63819;BME280;49970;54.976;73.248;2022-11-14T06:23:22;97956.81;;;-0.28;100.00
63819;BME280;49970;54.976;73.248;2022-11-14T06:26:14;97949.97;;;-0.29;100.00
63819;BME280;49970;54.976;73.248;2022-11-14T06:29:03;97953.22;;;-0.25;100.00
63819;BME280;49970;54.976;73.248;2022-11-14T06:31:48;97936.22;;;-0.31;100.00
63819;BME280;49970;54.976;73.248;2022-11-14T06:34:33;97949.56;;;-0.22;100.00
63819;BME280;49970;54.976;73.248;2022-11-14T06:37:18;97941.63;;;-0.21;100.00
63819;BME280;49970;54.976;73.248;2022-11-14T06:40:03;97944.16;;;-0.19;100.00
63819;BME280;49970;54.976;73.248;2022-11-14T06:42:55;97939.97;;;-0.22;100.00
63819;BME280;49970;54.976;73.248;2022-11-14T06:45:40;97944.88;;;-0.17;100.00
63819;BME280;49970;54.976;73.248;2022-11-14T06:48:25;97943.22;;;-0.18;100.00
63819;BME280;49970;54.976;73.248;2022-11-14T06:51:11;97940.72;;;-0.20;100.00
63819;BME280;49970;54.976;73.248;2022-11-14T06:54:02;97942.50;;;-0.20;100.00
63819;BME280;49970;54.976;73.248;2022-11-14T06:56:47;97918.84;;;-0.30;100.00
63819;BME280;49970;54.976;73.248;2022-11-14T06:59:32;97933.75;;;-0.19;100.00
63819;BME280;49970;54.976;73.248;2022-11-14T07:02:16;97922.28;;;-0.17;100.00
63819;BME280;49970;54.976;73.248;2022-11-14T07:05:02;97926.47;;;-0.14;100.00
63819;BME280;49970;54.976;73.248;2022-11-14T07:07:52;97920.44;;;-0.15;100.00
63819;BME280;49970;54.976;73.248;2022-11-14T07:10:36;97907.28;;;-0.26;100.00
63819;BME280;49970;54.976;73.248;2022-11-14T07:13:21;97909.50;;;-0.20;100.00
63819;BME280;49970;54.976;73.248;2022-11-14T07:16:10;97913.47;;;-0.14;100.00
63819;BME280;49970;54.976;73.248;2022-11-14T07:18:56;97915.03;;;-0.12;100.00
63819;BME280;49970;54.976;73.248;2022-11-14T07:21:41;97912.53;;;-0.13;100.00
63819;BME280;49970;54.976;73.248;2022-11-14T07:24:30;97892.75;;;-0.16;100.00
63819;BME280;49970;54.976;73.248;2022-11-14T07:27:15;97898.06;;;-0.05;100.00
63819;BME280;49970;54.976;73.248;2022-11-14T07:30:08;97889.03;;;-0.12;100.00
63819;BME280;49970;54.976;73.248;2022-11-14T07:33:01;97894.00;;;-0.09;100.00
63819;BME280;49970;54.976;73.248;2022-11-14T07:35:46;97895.47;;;-0.05;100.00
63819;BME280;49970;54.976;73.248;2022-11-14T07:38:31;97892.78;;;-0.03;100.00
63819;BME280;49970;54.976;73.248;2022-11-14T07:41:18;97889.34;;;-0.04;100.00
63819;BME280;49970;54.976;73.248;2022-11-14T07:44:02;97883.19;;;-0.03;100.00
63819;BME280;49970;54.976;73.248;2022-11-14T07:46:47;97877.81;;;0.01;100.00
63819;BME280;49970;54.976;73.248;2022-11-14T07:49:33;97859.16;;;-0.06;100.00
63819;BME280;49970;54.976;73.248;2022-11-14T07:52:18;97870.59;;;0.04;100.00
63819;BME280;49970;54.976;73.248;2022-11-14T07:55:03;97856.56;;;0.07;100.00
63819;BME280;49970;54.976;73.248;2022-11-14T07:57:52;97856.25;;;0.11;100.00
63819;BME280;49970;54.976;73.248;2022-11-14T08:00:37;97851.78;;;0.13;100.00
63819;BME280;49970;54.976;73.248;2022-11-14T08:03:21;97855.22;;;0.14;100.00
63819;BME280;49970;54.976;73.248;2022-11-14T08:06:17;97853.75;;;0.10;100.00
63819;BME280;49970;54.976;73.248;2022-11-14T08:09:11;97856.97;;;0.13;100.00
63819;BME280;49970;54.976;73.248;2022-11-14T08:11:56;97861.34;;;0.13;100.00
63819;BME280;49970;54.976;73.248;2022-11-14T08:14:40;97856.03;;;0.14;100.00
63819;BME280;49970;54.976;73.248;2022-11-14T08:17:31;97841.13;;;0.16;100.00
63819;BME280;49970;54.976;73.248;2022-11-14T08:20:25;97835.00;;;0.17;100.00
63819;BME280;49970;54.976;73.248;2022-11-14T08:23:10;97830.63;;;0.18;100.00
63819;BME280;49970;54.976;73.248;2022-11-14T08:25:57;97825.22;;;0.21;100.00
63819;BME280;49970;54.976;73.248;2022-11-14T08:28:42;97824.28;;;0.22;100.00
63819;BME280;49970;54.976;73.248;2022-11-14T08:31:37;97815.53;;;0.23;100.00
63819;BME280;49970;54.976;73.248;2022-11-14T08:34:21;97800.44;;;0.15;100.00
63819;BME280;49970;54.976;73.248;2022-11-14T08:37:11;97803.97;;;0.27;100.00
63819;BME280;49970;54.976;73.248;2022-11-14T08:39:55;97808.97;;;0.30;100.00
63819;BME280;49970;54.976;73.248;2022-11-14T08:42:44;97812.28;;;0.32;100.00
63819;BME280;49970;54.976;73.248;2022-11-14T08:45:29;97803.03;;;0.28;100.00
63819;BME280;49970;54.976;73.248;2022-11-14T08:48:13;97808.72;;;0.33;100.00
63819;BME280;49970;54.976;73.248;2022-11-14T08:51:04;97801.03;;;0.32;100.00
63819;BME280;49970;54.976;73.248;2022-11-14T08:54:00;97800.84;;;0.35;100.00
63819;BME280;49970;54.976;73.248;2022-11-14T08:56:44;97805.94;;;0.36;100.00
63819;BME280;49970;54.976;73.248;2022-11-14T08:59:30;97805.84;;;0.38;100.00
63819;BME280;49970;54.976;73.248;2022-11-14T09:02:14;97798.72;;;0.40;100.00
63819;BME280;49970;54.976;73.248;2022-11-14T09:04:59;97784.88;;;0.39;100.00
63819;BME280;49970;54.976;73.248;2022-11-14T09:07:43;97794.84;;;0.45;100.00
63819;BME280;49970;54.976;73.248;2022-11-14T09:10:28;97794.84;;;0.45;100.00
63819;BME280;49970;54.976;73.248;2022-11-14T09:13:12;97792.88;;;0.49;100.00
63819;BME280;49970;54.976;73.248;2022-11-14T09:15:57;97788.72;;;0.46;100.00
63819;BME280;49970;54.976;73.248;2022-11-14T09:18:41;97789.31;;;0.50;100.00
63819;BME280;49970;54.976;73.248;2022-11-14T09:21:26;97776.53;;;0.47;100.00
63819;BME280;49970;54.976;73.248;2022-11-14T09:24:11;97771.09;;;0.50;100.00
63819;BME280;49970;54.976;73.248;2022-11-14T09:26:55;97773.41;;;0.55;100.00
63819;BME280;49970;54.976;73.248;2022-11-14T09:29:49;97753.81;;;0.49;100.00
63819;BME280;49970;54.976;73.248;2022-11-14T09:32:34;97767.94;;;0.58;100.00
63819;BME280;49970;54.976;73.248;2022-11-14T09:35:19;97757.53;;;0.58;100.00
63819;BME280;49970;54.976;73.248;2022-11-14T09:38:06;97767.88;;;0.59;100.00
63819;BME280;49970;54.976;73.248;2022-11-14T09:47:05;97754.94;;;0.58;100.00
63819;BME280;49970;54.976;73.248;2022-11-14T09:49:58;97761.09;;;0.57;100.00
63819;BME280;49970;54.976;73.248;2022-11-14T09:52:48;97745.78;;;0.52;100.00
63819;BME280;49970;54.976;73.248;2022-11-14T09:55:34;97753.38;;;0.55;100.00
63819;BME280;49970;54.976;73.248;2022-11-14T09:58:19;97745.91;;;0.51;100.00
63819;BME280;49970;54.976;73.248;2022-11-14T10:01:10;97751.41;;;0.46;100.00
63819;BME280;49970;54.976;73.248;2022-11-14T10:04:44;97736.38;;;0.38;100.00
63819;BME280;49970;54.976;73.248;2022-11-14T10:11:07;97726.97;;;0.36;100.00
63819;BME280;49970;54.976;73.248;2022-11-14T10:26:19;97728.84;;;0.46;100.00
63819;BME280;49970;54.976;73.248;2022-11-14T10:41:21;97712.75;;;0.53;100.00
63819;BME280;49970;54.976;73.248;2022-11-14T10:44:19;97707.75;;;0.49;100.00
63819;BME280;49970;54.976;73.248;2022-11-14T10:47:11;97707.34;;;0.56;100.00
63819;BME280;49970;54.976;73.248;2022-11-14T10:50:10;97708.16;;;0.56;100.00
63819;BME280;49970;54.976;73.248;2022-11-14T10:53:00;97696.53;;;0.49;100.00
63819;BME280;49970;54.976;73.248;2022-11-14T10:55:53;97698.91;;;0.52;100.00
63819;BME280;49970;54.976;73.248;2022-11-14T10:58:40;97686.09;;;0.49;100.00
63819;BME280;49970;54.976;73.248;2022-11-14T11:01:39;97690.97;;;0.54;100.00
63819;BME280;49970;54.976;73.248;2022-11-14T11:04:31;97705.97;;;0.63;100.00
63819;BME280;49970;54.976;73.248;2022-11-14T11:07:25;97699.06;;;0.62;100.00
63819;BME280;49970;54.976;73.248;2022-11-14T11:10:32;97691.38;;;0.60;100.00
63819;BME280;49970;54.976;73.248;2022-11-14T11:13:49;97683.16;;;0.54;100.00
63819;BME280;49970;54.976;73.248;2022-11-14T11:16:37;97687.72;;;0.63;100.00
63819;BME280;49970;54.976;73.248;2022-11-14T11:19:24;97688.66;;;0.62;100.00
63819;BME280;49970;54.976;73.248;2022-11-14T11:22:38;97675.53;;;0.63;100.00
63819;BME280;49970;54.976;73.248;2022-11-14T11:25:26;97681.56;;;0.64;100.00
63819;BME280;49970;54.976;73.248;2022-11-14T11:28:19;97681.56;;;0.64;100.00
63819;BME280;49970;54.976;73.248;2022-11-14T11:31:07;97669.50;;;0.63;100.00
63819;BME280;49970;54.976;73.248;2022-11-14T11:34:07;97672.09;;;0.63;100.00
63819;BME280;49970;54.976;73.248;2022-11-14T11:37:18;97663.56;;;0.61;100.00
63819;BME280;49970;54.976;73.248;2022-11-14T11:40:05;97655.94;;;0.58;100.00
63819;BME280;49970;54.976;73.248;2022-11-14T11:46:59;97654.31;;;0.57;100.00
63819;BME280;49970;54.976;73.248;2022-11-14T11:52:27;97643.88;;;0.57;100.00
63819;BME280;49970;54.976;73.248;2022-11-14T11:55:40;97654.19;;;0.58;100.00
63819;BME280;49970;54.976;73.248;2022-11-14T11:58:49;97653.25;;;0.59;100.00
63819;BME280;49970;54.976;73.248;2022-11-14T12:01:34;97645.88;;;0.53;100.00
63819;BME280;49970;54.976;73.248;2022-11-14T12:04:19;97637.97;;;0.55;100.00
63819;BME280;49970;54.976;73.248;2022-11-14T12:07:11;97639.41;;;0.59;100.00
63819;BME280;49970;54.976;73.248;2022-11-14T12:10:11;97640.84;;;0.63;100.00
63819;BME280;49970;54.976;73.248;2022-11-14T12:13:20;97640.72;;;0.64;100.00
63819;BME280;49970;54.976;73.248;2022-11-14T12:16:27;97638.00;;;0.66;100.00
63819;BME280;49970;54.976;73.248;2022-11-14T12:22:30;97631.63;;;0.70;100.00
63819;BME280;49970;54.976;73.248;2022-11-14T12:25:41;97632.34;;;0.72;100.00
63819;BME280;49970;54.976;73.248;2022-11-14T12:28:55;97629.63;;;0.73;100.00
63819;BME280;49970;54.976;73.248;2022-11-14T12:31:45;97623.78;;;0.70;100.00
63819;BME280;49970;54.976;73.248;2022-11-14T12:34:37;97631.28;;;0.74;100.00
63819;BME280;49970;54.976;73.248;2022-11-14T12:37:33;97627.63;;;0.77;100.00
63819;BME280;49970;54.976;73.248;2022-11-14T12:40:47;97630.94;;;0.79;100.00
63819;BME280;49970;54.976;73.248;2022-11-14T12:43:36;97622.88;;;0.82;100.00
63819;BME280;49970;54.976;73.248;2022-11-14T12:46:23;97620.06;;;0.85;100.00
63819;BME280;49970;54.976;73.248;2022-11-14T12:52:40;97618.97;;;0.88;100.00
63819;BME280;49970;54.976;73.248;2022-11-14T12:58:45;97617.00;;;0.91;100.00
63819;BME280;49970;54.976;73.248;2022-11-14T13:01:46;97615.94;;;0.94;100.00
63819;BME280;49970;54.976;73.248;2022-11-14T13:10:38;97612.16;;;0.98;100.00
63819;BME280;49970;54.976;73.248;2022-11-14T13:13:23;97608.13;;;0.94;100.00
63819;BME280;49970;54.976;73.248;2022-11-14T13:16:30;97615.38;;;1.02;100.00
63819;BME280;49970;54.976;73.248;2022-11-14T13:19:44;97607.78;;;0.98;100.00
63819;BME280;49970;54.976;73.248;2022-11-14T13:22:53;97616.06;;;1.04;100.00
63819;BME280;49970;54.976;73.248;2022-11-14T13:25:37;97610.03;;;1.03;100.00
63819;BME280;49970;54.976;73.248;2022-11-14T13:31:24;97613.09;;;1.08;100.00
63819;BME280;49970;54.976;73.248;2022-11-14T13:40:51;97590.13;;;1.02;100.00
63819;BME280;49970;54.976;73.248;2022-11-14T13:50:16;97597.97;;;1.13;100.00
63819;BME280;49970;54.976;73.248;2022-11-14T13:53:14;97599.63;;;1.14;100.00
63819;BME280;49970;54.976;73.248;2022-11-14T13:56:24;97601.28;;;1.15;100.00
63819;BME280;49970;54.976;73.248;2022-11-14T14:11:25;97598.53;;;1.17;100.00
63819;BME280;49970;54.976;73.248;2022-11-14T14:14:42;97596.19;;;1.14;100.00
63819;BME280;49970;54.976;73.248;2022-11-14T14:20:50;97590.63;;;1.18;100.00
63819;BME280;49970;54.976;73.248;2022-11-14T14:27:21;97577.00;;;1.15;100.00
63819;BME280;49970;54.976;73.248;2022-11-14T14:30:10;97580.19;;;1.18;100.00
63819;BME280;49970;54.976;73.248;2022-11-14T14:33:08;97586.94;;;1.21;100.00
63819;BME280;49970;54.976;73.248;2022-11-14T14:35:53;97570.81;;;1.16;100.00
63819;BME280;49970;54.976;73.248;2022-11-14T14:38:38;97579.84;;;1.23;100.00
63819;BME280;49970;54.976;73.248;2022-11-14T14:41:22;97573.91;;;1.21;100.00
63819;BME280;49970;54.976;73.248;2022-11-14T14:44:21;97572.16;;;1.21;100.00
63819;BME280;49970;54.976;73.248;2022-11-14T14:47:58;97577.09;;;1.24;100.00
63819;BME280;49970;54.976;73.248;2022-11-14T14:50:49;97569.28;;;1.24;100.00
63819;BME280;49970;54.976;73.248;2022-11-14T14:53:35;97566.81;;;1.23;100.00
63819;BME280;49970;54.976;73.248;2022-11-14T14:56:22;97570.09;;;1.25;100.00
63819;BME280;49970;54.976;73.248;2022-11-14T14:59:22;97576.88;;;1.28;100.00
63819;BME280;49970;54.976;73.248;2022-11-14T15:02:24;97568.94;;;1.29;100.00
63819;BME280;49970;54.976;73.248;2022-11-14T15:05:09;97570.72;;;1.29;100.00
63819;BME280;49970;54.976;73.248;2022-11-14T15:07:59;97556.38;;;1.23;100.00
63819;BME280;49970;54.976;73.248;2022-11-14T15:10:44;97561.81;;;1.31;100.00
63819;BME280;49970;54.976;73.248;2022-11-14T15:13:29;97566.22;;;1.31;100.00
63819;BME280;49970;54.976;73.248;2022-11-14T15:16:14;97561.00;;;1.31;100.00
63819;BME280;49970;54.976;73.248;2022-11-14T15:19:00;97560.28;;;1.29;100.00
63819;BME280;49970;54.976;73.248;2022-11-14T15:22:02;97553.41;;;1.28;100.00
63819;BME280;49970;54.976;73.248;2022-11-14T15:25:19;97550.22;;;1.24;100.00
63819;BME280;49970;54.976;73.248;2022-11-14T15:28:11;97557.56;;;1.30;100.00
63819;BME280;49970;54.976;73.248;2022-11-14T15:31:02;97540.25;;;1.18;100.00
63819;BME280;49970;54.976;73.248;2022-11-14T15:34:02;97556.47;;;1.33;100.00
63819;BME280;49970;54.976;73.248;2022-11-14T15:40:18;97551.28;;;1.33;100.00
63819;BME280;49970;54.976;73.248;2022-11-14T15:46:48;97554.00;;;1.31;100.00
63819;BME280;49970;54.976;73.248;2022-11-14T15:49:34;97549.84;;;1.29;100.00
63819;BME280;49970;54.976;73.248;2022-11-14T15:52:36;97545.00;;;1.35;100.00
63819;BME280;49970;54.976;73.248;2022-11-14T15:55:23;97541.09;;;1.30;100.00
63819;BME280;49970;54.976;73.248;2022-11-14T16:03:21;97513.69;;;1.24;100.00
63819;BME280;49970;54.976;73.248;2022-11-14T16:06:09;97538.00;;;1.36;100.00
63819;BME280;49970;54.976;73.248;2022-11-14T16:09:03;97527.44;;;1.37;100.00
63819;BME280;49970;54.976;73.248;2022-11-14T16:12:08;97536.09;;;1.38;100.00
63819;BME280;49970;54.976;73.248;2022-11-14T16:16:04;97528.16;;;1.39;100.00
63819;BME280;49970;54.976;73.248;2022-11-14T16:18:49;97525.56;;;1.39;100.00
63819;BME280;49970;54.976;73.248;2022-11-14T16:21:38;97515.59;;;1.33;100.00
63819;BME280;49970;54.976;73.248;2022-11-14T16:24:23;97527.22;;;1.40;100.00
63819;BME280;49970;54.976;73.248;2022-11-14T16:27:13;97522.34;;;1.36;100.00
63819;BME280;49970;54.976;73.248;2022-11-14T16:30:13;97526.25;;;1.41;100.00
63819;BME280;49970;54.976;73.248;2022-11-14T16:32:58;97516.09;;;1.38;100.00
63819;BME280;49970;54.976;73.248;2022-11-14T16:35:43;97509.44;;;1.34;100.00